sensor_id;sensor_type;location;lat;lon;timestamp;temperature;humidity
25046;DHT22;13044;49.304;12.840;2023-05-07T00:01:39;14.10;99.90
25046;DHT22;13044;49.304;12.840;2023-05-07T00:04:06;14.10;99.90
25046;DHT22;13044;49.304;12.840;2023-05-07T00:06:34;14.10;99.90
25046;DHT22;13044;49.304;12.840;2023-05-07T00:09:01;14.00;99.90
25046;DHT22;13044;49.304;12.840;2023-05-07T00:11:28;13.90;99.90
25046;DHT22;13044;49.304;12.840;2023-05-07T00:13:55;13.80;99.90
25046;DHT22;13044;49.304;12.840;2023-05-07T00:16:21;13.80;99.90
25046;DHT22;13044;49.304;12.840;2023-05-07T00:18:48;13.80;99.90
25046;DHT22;13044;49.304;12.840;2023-05-07T00:21:15;13.70;99.90
25046;DHT22;13044;49.304;12.840;2023-05-07T00:23:42;13.70;99.90
25046;DHT22;13044;49.304;12.840;2023-05-07T00:26:09;13.70;99.90
25046;DHT22;13044;49.304;12.840;2023-05-07T00:28:36;13.60;99.90
25046;DHT22;13044;49.304;12.840;2023-05-07T00:31:03;13.60;99.90
25046;DHT22;13044;49.304;12.840;2023-05-07T00:33:30;13.60;99.90
25046;DHT22;13044;49.304;12.840;2023-05-07T00:35:56;13.50;99.90
25046;DHT22;13044;49.304;12.840;2023-05-07T00:38:23;13.50;99.90
25046;DHT22;13044;49.304;12.840;2023-05-07T00:40:50;13.40;99.90
25046;DHT22;13044;49.304;12.840;2023-05-07T00:43:17;13.50;99.90
25046;DHT22;13044;49.304;12.840;2023-05-07T00:45:44;13.30;99.90
25046;DHT22;13044;49.304;12.840;2023-05-07T00:48:12;13.30;99.90
25046;DHT22;13044;49.304;12.840;2023-05-07T00:50:40;13.30;99.90
25046;DHT22;13044;49.304;12.840;2023-05-07T00:53:08;13.30;99.90
25046;DHT22;13044;49.304;12.840;2023-05-07T00:55:35;13.30;99.90
25046;DHT22;13044;49.304;12.840;2023-05-07T00:58:02;13.30;99.90
25046;DHT22;13044;49.304;12.840;2023-05-07T01:00:29;13.30;99.90
25046;DHT22;13044;49.304;12.840;2023-05-07T01:02:56;13.20;99.90
25046;DHT22;13044;49.304;12.840;2023-05-07T01:05:24;13.10;99.90
25046;DHT22;13044;49.304;12.840;2023-05-07T01:07:53;13.10;99.90
25046;DHT22;13044;49.304;12.840;2023-05-07T01:10:22;13.10;99.90
25046;DHT22;13044;49.304;12.840;2023-05-07T01:12:50;13.10;99.90
25046;DHT22;13044;49.304;12.840;2023-05-07T01:15:17;13.10;99.90
25046;DHT22;13044;49.304;12.840;2023-05-07T01:17:45;13.10;99.90
25046;DHT22;13044;49.304;12.840;2023-05-07T01:20:12;13.10;99.90
25046;DHT22;13044;49.304;12.840;2023-05-07T01:22:39;13.10;99.90
25046;DHT22;13044;49.304;12.840;2023-05-07T01:25:07;13.10;99.90
25046;DHT22;13044;49.304;12.840;2023-05-07T01:27:35;13.10;99.90
25046;DHT22;13044;49.304;12.840;2023-05-07T01:30:06;13.10;99.90
25046;DHT22;13044;49.304;12.840;2023-05-07T01:35:13;12.90;99.90
25046;DHT22;13044;49.304;12.840;2023-05-07T01:37:43;12.90;99.90
25046;DHT22;13044;49.304;12.840;2023-05-07T01:40:11;12.80;99.90
25046;DHT22;13044;49.304;12.840;2023-05-07T01:42:38;12.80;99.90
25046;DHT22;13044;49.304;12.840;2023-05-07T01:45:06;12.70;99.90
25046;DHT22;13044;49.304;12.840;2023-05-07T01:47:33;12.70;99.90
25046;DHT22;13044;49.304;12.840;2023-05-07T01:50:01;12.70;99.90
25046;DHT22;13044;49.304;12.840;2023-05-07T01:52:28;12.70;99.90
25046;DHT22;13044;49.304;12.840;2023-05-07T01:54:55;12.70;99.90
25046;DHT22;13044;49.304;12.840;2023-05-07T01:57:22;12.70;99.90
25046;DHT22;13044;49.304;12.840;2023-05-07T01:59:49;12.70;99.90
25046;DHT22;13044;49.304;12.840;2023-05-07T02:02:16;12.60;99.90
25046;DHT22;13044;49.304;12.840;2023-05-07T02:04:43;12.60;99.90
25046;DHT22;13044;49.304;12.840;2023-05-07T02:07:10;12.60;99.90
25046;DHT22;13044;49.304;12.840;2023-05-07T02:09:37;12.60;99.90
25046;DHT22;13044;49.304;12.840;2023-05-07T02:12:04;12.60;99.90
25046;DHT22;13044;49.304;12.840;2023-05-07T02:14:31;12.70;99.90
25046;DHT22;13044;49.304;12.840;2023-05-07T02:16:58;12.60;99.90
25046;DHT22;13044;49.304;12.840;2023-05-07T02:19:25;12.60;99.90
25046;DHT22;13044;49.304;12.840;2023-05-07T02:21:52;12.60;99.90
25046;DHT22;13044;49.304;12.840;2023-05-07T02:24:19;12.60;99.90
25046;DHT22;13044;49.304;12.840;2023-05-07T02:26:46;12.60;99.90
25046;DHT22;13044;49.304;12.840;2023-05-07T02:29:13;12.60;99.90
25046;DHT22;13044;49.304;12.840;2023-05-07T02:31:40;12.70;99.90
25046;DHT22;13044;49.304;12.840;2023-05-07T02:34:07;12.60;99.90
25046;DHT22;13044;49.304;12.840;2023-05-07T02:36:33;12.60;99.90
25046;DHT22;13044;49.304;12.840;2023-05-07T02:39:01;12.50;99.90
25046;DHT22;13044;49.304;12.840;2023-05-07T02:41:29;12.50;99.90
25046;DHT22;13044;49.304;12.840;2023-05-07T02:43:56;12.50;99.90
25046;DHT22;13044;49.304;12.840;2023-05-07T02:46:22;12.50;99.90
25046;DHT22;13044;49.304;12.840;2023-05-07T02:48:49;12.50;99.90
25046;DHT22;13044;49.304;12.840;2023-05-07T02:51:20;12.50;99.90
25046;DHT22;13044;49.304;12.840;2023-05-07T02:53:50;12.50;99.90
25046;DHT22;13044;49.304;12.840;2023-05-07T02:56:17;12.40;99.90
25046;DHT22;13044;49.304;12.840;2023-05-07T02:58:44;12.40;99.90
25046;DHT22;13044;49.304;12.840;2023-05-07T03:01:11;12.40;99.90
25046;DHT22;13044;49.304;12.840;2023-05-07T03:03:40;12.40;99.90
25046;DHT22;13044;49.304;12.840;2023-05-07T03:06:07;12.40;99.90
25046;DHT22;13044;49.304;12.840;2023-05-07T03:08:34;12.20;99.90
25046;DHT22;13044;49.304;12.840;2023-05-07T03:11:01;12.20;99.90
25046;DHT22;13044;49.304;12.840;2023-05-07T03:13:27;12.30;99.90
25046;DHT22;13044;49.304;12.840;2023-05-07T03:15:54;12.20;99.90
25046;DHT22;13044;49.304;12.840;2023-05-07T03:18:21;12.20;99.90
25046;DHT22;13044;49.304;12.840;2023-05-07T03:20:48;12.10;99.90
25046;DHT22;13044;49.304;12.840;2023-05-07T03:23:15;12.10;99.90
25046;DHT22;13044;49.304;12.840;2023-05-07T03:25:42;12.00;99.90
25046;DHT22;13044;49.304;12.840;2023-05-07T03:28:09;12.10;99.90
25046;DHT22;13044;49.304;12.840;2023-05-07T03:30:36;12.10;99.90
25046;DHT22;13044;49.304;12.840;2023-05-07T03:33:03;12.00;99.90
25046;DHT22;13044;49.304;12.840;2023-05-07T03:35:29;12.10;99.90
25046;DHT22;13044;49.304;12.840;2023-05-07T03:37:56;12.10;99.90
25046;DHT22;13044;49.304;12.840;2023-05-07T03:40:23;12.10;99.90
25046;DHT22;13044;49.304;12.840;2023-05-07T03:42:50;12.10;99.90
25046;DHT22;13044;49.304;12.840;2023-05-07T03:45:17;12.10;99.90
25046;DHT22;13044;49.304;12.840;2023-05-07T03:47:43;12.10;99.90
25046;DHT22;13044;49.304;12.840;2023-05-07T03:50:10;12.10;99.90
25046;DHT22;13044;49.304;12.840;2023-05-07T03:52:38;12.10;99.90
25046;DHT22;13044;49.304;12.840;2023-05-07T03:55:05;12.10;99.90
25046;DHT22;13044;49.304;12.840;2023-05-07T03:57:32;12.10;99.90
25046;DHT22;13044;49.304;12.840;2023-05-07T04:02:33;12.10;99.90
25046;DHT22;13044;49.304;12.840;2023-05-07T04:05:00;12.00;99.90
25046;DHT22;13044;49.304;12.840;2023-05-07T04:07:27;12.00;99.90
25046;DHT22;13044;49.304;12.840;2023-05-07T04:09:54;12.00;99.90
25046;DHT22;13044;49.304;12.840;2023-05-07T04:12:21;12.00;99.90
25046;DHT22;13044;49.304;12.840;2023-05-07T04:14:48;11.90;99.90
25046;DHT22;13044;49.304;12.840;2023-05-07T04:17:14;11.90;99.90
25046;DHT22;13044;49.304;12.840;2023-05-07T04:19:41;12.00;99.90
25046;DHT22;13044;49.304;12.840;2023-05-07T04:22:11;11.90;99.90
25046;DHT22;13044;49.304;12.840;2023-05-07T04:24:38;11.90;99.90
25046;DHT22;13044;49.304;12.840;2023-05-07T04:27:05;12.00;99.90
25046;DHT22;13044;49.304;12.840;2023-05-07T04:29:32;12.00;99.90
25046;DHT22;13044;49.304;12.840;2023-05-07T04:31:59;12.00;99.90
25046;DHT22;13044;49.304;12.840;2023-05-07T04:34:27;12.00;99.90
25046;DHT22;13044;49.304;12.840;2023-05-07T04:36:53;12.10;99.90
25046;DHT22;13044;49.304;12.840;2023-05-07T04:39:20;12.00;99.90
25046;DHT22;13044;49.304;12.840;2023-05-07T04:41:47;12.00;99.90
25046;DHT22;13044;49.304;12.840;2023-05-07T04:44:14;12.10;99.90
25046;DHT22;13044;49.304;12.840;2023-05-07T04:46:41;12.20;99.90
25046;DHT22;13044;49.304;12.840;2023-05-07T04:49:07;12.10;99.90
25046;DHT22;13044;49.304;12.840;2023-05-07T04:51:34;12.10;99.90
25046;DHT22;13044;49.304;12.840;2023-05-07T04:54:01;12.10;99.90
25046;DHT22;13044;49.304;12.840;2023-05-07T04:56:29;12.30;99.90
25046;DHT22;13044;49.304;12.840;2023-05-07T04:58:56;12.20;99.90
25046;DHT22;13044;49.304;12.840;2023-05-07T05:01:23;12.20;99.90
25046;DHT22;13044;49.304;12.840;2023-05-07T05:03:50;12.20;99.90
25046;DHT22;13044;49.304;12.840;2023-05-07T05:06:17;12.20;99.90
25046;DHT22;13044;49.304;12.840;2023-05-07T05:08:44;12.30;99.90
25046;DHT22;13044;49.304;12.840;2023-05-07T05:11:10;12.60;99.90
25046;DHT22;13044;49.304;12.840;2023-05-07T05:13:37;12.80;99.90
25046;DHT22;13044;49.304;12.840;2023-05-07T05:16:04;13.00;99.90
25046;DHT22;13044;49.304;12.840;2023-05-07T05:18:32;12.90;99.90
25046;DHT22;13044;49.304;12.840;2023-05-07T05:20:59;12.80;99.90
25046;DHT22;13044;49.304;12.840;2023-05-07T05:23:27;12.90;99.90
25046;DHT22;13044;49.304;12.840;2023-05-07T05:25:57;12.90;99.90
25046;DHT22;13044;49.304;12.840;2023-05-07T05:28:24;12.90;99.90
25046;DHT22;13044;49.304;12.840;2023-05-07T05:30:51;13.00;99.90
25046;DHT22;13044;49.304;12.840;2023-05-07T05:33:18;13.00;99.90
25046;DHT22;13044;49.304;12.840;2023-05-07T05:35:44;13.00;99.90
25046;DHT22;13044;49.304;12.840;2023-05-07T05:38:11;13.00;99.90
25046;DHT22;13044;49.304;12.840;2023-05-07T05:40:38;13.10;99.90
25046;DHT22;13044;49.304;12.840;2023-05-07T05:43:06;13.10;99.90
25046;DHT22;13044;49.304;12.840;2023-05-07T05:45:32;13.10;99.90
25046;DHT22;13044;49.304;12.840;2023-05-07T05:47:59;13.00;99.90
25046;DHT22;13044;49.304;12.840;2023-05-07T05:50:26;12.90;99.90
25046;DHT22;13044;49.304;12.840;2023-05-07T05:52:53;12.70;99.90
25046;DHT22;13044;49.304;12.840;2023-05-07T05:55:20;12.70;99.90
25046;DHT22;13044;49.304;12.840;2023-05-07T05:57:48;12.60;99.90
25046;DHT22;13044;49.304;12.840;2023-05-07T06:00:15;12.60;99.90
25046;DHT22;13044;49.304;12.840;2023-05-07T06:02:42;12.80;99.90
25046;DHT22;13044;49.304;12.840;2023-05-07T06:05:10;12.80;99.90
25046;DHT22;13044;49.304;12.840;2023-05-07T06:07:36;12.80;99.90
25046;DHT22;13044;49.304;12.840;2023-05-07T06:10:03;12.80;99.90
25046;DHT22;13044;49.304;12.840;2023-05-07T06:12:31;12.80;99.90
25046;DHT22;13044;49.304;12.840;2023-05-07T06:14:58;12.80;99.90
25046;DHT22;13044;49.304;12.840;2023-05-07T06:17:25;12.80;99.90
25046;DHT22;13044;49.304;12.840;2023-05-07T06:19:52;12.80;99.90
25046;DHT22;13044;49.304;12.840;2023-05-07T06:22:19;12.80;99.90
25046;DHT22;13044;49.304;12.840;2023-05-07T06:24:46;12.80;99.90
25046;DHT22;13044;49.304;12.840;2023-05-07T06:27:13;12.80;99.90
25046;DHT22;13044;49.304;12.840;2023-05-07T06:29:39;12.80;99.90
25046;DHT22;13044;49.304;12.840;2023-05-07T06:32:10;12.90;99.90
25046;DHT22;13044;49.304;12.840;2023-05-07T06:34:39;12.90;99.90
25046;DHT22;13044;49.304;12.840;2023-05-07T06:37:07;12.80;99.90
25046;DHT22;13044;49.304;12.840;2023-05-07T06:39:33;12.90;99.90
25046;DHT22;13044;49.304;12.840;2023-05-07T06:42:01;12.90;99.90
25046;DHT22;13044;49.304;12.840;2023-05-07T06:44:31;12.90;99.90
25046;DHT22;13044;49.304;12.840;2023-05-07T06:46:58;13.00;99.90
25046;DHT22;13044;49.304;12.840;2023-05-07T06:49:25;13.10;99.90
25046;DHT22;13044;49.304;12.840;2023-05-07T06:51:52;13.10;99.90
25046;DHT22;13044;49.304;12.840;2023-05-07T06:54:19;13.20;99.90
25046;DHT22;13044;49.304;12.840;2023-05-07T06:56:46;13.30;99.90
25046;DHT22;13044;49.304;12.840;2023-05-07T06:59:13;13.30;99.90
25046;DHT22;13044;49.304;12.840;2023-05-07T07:01:40;13.30;99.90
25046;DHT22;13044;49.304;12.840;2023-05-07T07:04:07;13.30;99.90
25046;DHT22;13044;49.304;12.840;2023-05-07T07:06:34;13.30;99.90
25046;DHT22;13044;49.304;12.840;2023-05-07T07:09:01;13.30;99.90
25046;DHT22;13044;49.304;12.840;2023-05-07T07:11:28;13.40;99.90
25046;DHT22;13044;49.304;12.840;2023-05-07T07:13:55;13.50;99.90
25046;DHT22;13044;49.304;12.840;2023-05-07T07:16:22;13.60;99.90
25046;DHT22;13044;49.304;12.840;2023-05-07T07:18:49;13.70;99.90
25046;DHT22;13044;49.304;12.840;2023-05-07T07:21:16;13.60;99.90
25046;DHT22;13044;49.304;12.840;2023-05-07T07:23:42;13.60;99.90
25046;DHT22;13044;49.304;12.840;2023-05-07T07:26:09;13.70;99.90
25046;DHT22;13044;49.304;12.840;2023-05-07T07:28:42;13.70;99.90
25046;DHT22;13044;49.304;12.840;2023-05-07T07:31:11;13.70;99.90
25046;DHT22;13044;49.304;12.840;2023-05-07T07:33:39;13.80;99.90
25046;DHT22;13044;49.304;12.840;2023-05-07T07:36:06;13.80;99.90
25046;DHT22;13044;49.304;12.840;2023-05-07T07:38:34;13.90;99.90
25046;DHT22;13044;49.304;12.840;2023-05-07T07:41:01;13.70;99.90
25046;DHT22;13044;49.304;12.840;2023-05-07T07:43:28;13.80;99.90
25046;DHT22;13044;49.304;12.840;2023-05-07T07:45:55;13.90;99.90
25046;DHT22;13044;49.304;12.840;2023-05-07T07:48:22;14.00;99.90
25046;DHT22;13044;49.304;12.840;2023-05-07T07:50:50;14.00;99.90
25046;DHT22;13044;49.304;12.840;2023-05-07T07:53:18;14.10;99.90
25046;DHT22;13044;49.304;12.840;2023-05-07T07:55:45;14.10;99.90
25046;DHT22;13044;49.304;12.840;2023-05-07T07:58:12;14.20;99.90
25046;DHT22;13044;49.304;12.840;2023-05-07T08:00:39;14.20;99.90
25046;DHT22;13044;49.304;12.840;2023-05-07T08:03:08;14.20;99.90
25046;DHT22;13044;49.304;12.840;2023-05-07T08:05:36;14.40;99.90
25046;DHT22;13044;49.304;12.840;2023-05-07T08:08:05;14.40;99.90
25046;DHT22;13044;49.304;12.840;2023-05-07T08:10:32;14.40;99.90
25046;DHT22;13044;49.304;12.840;2023-05-07T08:13:01;14.40;99.90
25046;DHT22;13044;49.304;12.840;2023-05-07T08:15:30;14.40;99.90
25046;DHT22;13044;49.304;12.840;2023-05-07T08:17:58;14.40;99.90
25046;DHT22;13044;49.304;12.840;2023-05-07T08:20:26;14.40;99.90
25046;DHT22;13044;49.304;12.840;2023-05-07T08:22:54;14.40;99.90
25046;DHT22;13044;49.304;12.840;2023-05-07T08:25:21;14.40;99.90
25046;DHT22;13044;49.304;12.840;2023-05-07T08:27:48;14.40;99.90
25046;DHT22;13044;49.304;12.840;2023-05-07T08:30:15;14.40;99.90
25046;DHT22;13044;49.304;12.840;2023-05-07T08:32:42;14.40;99.90
25046;DHT22;13044;49.304;12.840;2023-05-07T08:35:09;14.40;99.90
25046;DHT22;13044;49.304;12.840;2023-05-07T08:37:36;14.50;99.90
25046;DHT22;13044;49.304;12.840;2023-05-07T08:40:03;14.50;99.90
25046;DHT22;13044;49.304;12.840;2023-05-07T08:42:36;14.50;99.90
25046;DHT22;13044;49.304;12.840;2023-05-07T08:45:08;14.60;99.90
25046;DHT22;13044;49.304;12.840;2023-05-07T08:47:42;14.40;99.90
25046;DHT22;13044;49.304;12.840;2023-05-07T08:50:13;14.50;99.90
25046;DHT22;13044;49.304;12.840;2023-05-07T08:52:40;14.50;99.90
25046;DHT22;13044;49.304;12.840;2023-05-07T08:55:08;14.50;99.90
25046;DHT22;13044;49.304;12.840;2023-05-07T08:57:36;14.50;99.90
25046;DHT22;13044;49.304;12.840;2023-05-07T09:00:06;14.40;99.90
25046;DHT22;13044;49.304;12.840;2023-05-07T09:02:35;14.50;99.90
25046;DHT22;13044;49.304;12.840;2023-05-07T09:05:03;14.50;99.90
25046;DHT22;13044;49.304;12.840;2023-05-07T09:07:31;14.50;99.90
25046;DHT22;13044;49.304;12.840;2023-05-07T09:09:57;14.60;99.90
25046;DHT22;13044;49.304;12.840;2023-05-07T09:12:25;14.60;99.90
25046;DHT22;13044;49.304;12.840;2023-05-07T09:14:52;14.60;99.90
25046;DHT22;13044;49.304;12.840;2023-05-07T09:17:19;14.80;99.90
25046;DHT22;13044;49.304;12.840;2023-05-07T09:19:47;14.70;99.90
25046;DHT22;13044;49.304;12.840;2023-05-07T09:22:14;14.70;99.90
25046;DHT22;13044;49.304;12.840;2023-05-07T09:24:41;14.70;99.90
25046;DHT22;13044;49.304;12.840;2023-05-07T09:27:14;14.80;99.90
25046;DHT22;13044;49.304;12.840;2023-05-07T09:29:41;14.80;99.90
25046;DHT22;13044;49.304;12.840;2023-05-07T09:32:08;14.80;99.90
25046;DHT22;13044;49.304;12.840;2023-05-07T09:34:35;14.90;99.90
25046;DHT22;13044;49.304;12.840;2023-05-07T09:37:03;15.00;99.90
25046;DHT22;13044;49.304;12.840;2023-05-07T09:39:48;15.00;99.90
25046;DHT22;13044;49.304;12.840;2023-05-07T09:42:23;15.10;99.90
25046;DHT22;13044;49.304;12.840;2023-05-07T09:44:51;15.40;99.90
25046;DHT22;13044;49.304;12.840;2023-05-07T09:47:19;15.60;99.90
25046;DHT22;13044;49.304;12.840;2023-05-07T09:49:48;15.90;99.90
25046;DHT22;13044;49.304;12.840;2023-05-07T09:52:16;16.20;99.90
25046;DHT22;13044;49.304;12.840;2023-05-07T09:54:43;16.40;99.90
25046;DHT22;13044;49.304;12.840;2023-05-07T09:57:11;16.60;99.90
25046;DHT22;13044;49.304;12.840;2023-05-07T09:59:38;16.40;99.90
25046;DHT22;13044;49.304;12.840;2023-05-07T10:02:09;16.40;99.90
25046;DHT22;13044;49.304;12.840;2023-05-07T10:04:37;16.50;99.90
25046;DHT22;13044;49.304;12.840;2023-05-07T10:07:04;16.60;99.90
25046;DHT22;13044;49.304;12.840;2023-05-07T10:09:32;16.60;99.90
25046;DHT22;13044;49.304;12.840;2023-05-07T10:11:59;16.80;99.90
25046;DHT22;13044;49.304;12.840;2023-05-07T10:14:26;16.90;99.90
25046;DHT22;13044;49.304;12.840;2023-05-07T10:16:54;17.00;99.90
25046;DHT22;13044;49.304;12.840;2023-05-07T10:19:22;16.90;99.90
25046;DHT22;13044;49.304;12.840;2023-05-07T10:22:03;16.80;99.90
25046;DHT22;13044;49.304;12.840;2023-05-07T10:24:33;16.90;99.90
25046;DHT22;13044;49.304;12.840;2023-05-07T10:27:09;17.10;99.90
25046;DHT22;13044;49.304;12.840;2023-05-07T10:29:49;17.30;99.90
25046;DHT22;13044;49.304;12.840;2023-05-07T10:32:47;17.30;99.90
25046;DHT22;13044;49.304;12.840;2023-05-07T10:35:23;17.20;99.90
25046;DHT22;13044;49.304;12.840;2023-05-07T10:37:51;17.10;99.90
25046;DHT22;13044;49.304;12.840;2023-05-07T10:40:20;17.30;99.90
25046;DHT22;13044;49.304;12.840;2023-05-07T10:43:05;17.50;99.90
25046;DHT22;13044;49.304;12.840;2023-05-07T10:45:36;17.60;99.90
25046;DHT22;13044;49.304;12.840;2023-05-07T10:48:11;17.60;99.90
25046;DHT22;13044;49.304;12.840;2023-05-07T10:50:45;17.60;99.90
25046;DHT22;13044;49.304;12.840;2023-05-07T10:56:23;17.90;99.90
25046;DHT22;13044;49.304;12.840;2023-05-07T10:58:45;17.90;99.90
25046;DHT22;13044;49.304;12.840;2023-05-07T11:01:11;17.60;99.90
25046;DHT22;13044;49.304;12.840;2023-05-07T11:04:14;17.60;99.90
25046;DHT22;13044;49.304;12.840;2023-05-07T11:06:42;17.50;99.90
25046;DHT22;13044;49.304;12.840;2023-05-07T11:09:56;17.60;99.90
25046;DHT22;13044;49.304;12.840;2023-05-07T11:15:06;18.10;99.90
25046;DHT22;13044;49.304;12.840;2023-05-07T11:17:35;18.10;99.90
25046;DHT22;13044;49.304;12.840;2023-05-07T11:20:19;18.10;99.90
25046;DHT22;13044;49.304;12.840;2023-05-07T11:22:47;18.20;99.90
25046;DHT22;13044;49.304;12.840;2023-05-07T11:25:18;18.20;99.90
25046;DHT22;13044;49.304;12.840;2023-05-07T11:27:48;18.30;99.90
25046;DHT22;13044;49.304;12.840;2023-05-07T11:30:18;18.30;99.90
25046;DHT22;13044;49.304;12.840;2023-05-07T11:32:47;18.50;99.90
25046;DHT22;13044;49.304;12.840;2023-05-07T11:35:15;18.60;99.90
25046;DHT22;13044;49.304;12.840;2023-05-07T11:37:44;18.70;99.90
25046;DHT22;13044;49.304;12.840;2023-05-07T11:40:12;18.70;99.90
25046;DHT22;13044;49.304;12.840;2023-05-07T11:42:40;18.90;99.90
25046;DHT22;13044;49.304;12.840;2023-05-07T11:45:09;19.10;99.90
25046;DHT22;13044;49.304;12.840;2023-05-07T11:47:37;19.30;99.90
25046;DHT22;13044;49.304;12.840;2023-05-07T11:50:06;19.30;99.90
25046;DHT22;13044;49.304;12.840;2023-05-07T11:52:35;19.30;99.90
25046;DHT22;13044;49.304;12.840;2023-05-07T11:55:03;19.30;99.90
25046;DHT22;13044;49.304;12.840;2023-05-07T12:01:37;19.40;99.90
25046;DHT22;13044;49.304;12.840;2023-05-07T12:04:04;19.50;99.90
25046;DHT22;13044;49.304;12.840;2023-05-07T12:06:36;19.60;99.90
25046;DHT22;13044;49.304;12.840;2023-05-07T12:09:04;19.90;99.90
25046;DHT22;13044;49.304;12.840;2023-05-07T12:11:36;19.80;99.90
25046;DHT22;13044;49.304;12.840;2023-05-07T12:14:17;19.90;99.90
25046;DHT22;13044;49.304;12.840;2023-05-07T12:16:45;20.00;99.90
25046;DHT22;13044;49.304;12.840;2023-05-07T12:19:12;20.00;99.90
25046;DHT22;13044;49.304;12.840;2023-05-07T12:21:41;20.00;99.90
25046;DHT22;13044;49.304;12.840;2023-05-07T12:24:08;20.10;99.90
25046;DHT22;13044;49.304;12.840;2023-05-07T12:26:39;20.20;99.90
25046;DHT22;13044;49.304;12.840;2023-05-07T12:29:07;20.20;99.90
25046;DHT22;13044;49.304;12.840;2023-05-07T12:31:34;20.20;99.90
25046;DHT22;13044;49.304;12.840;2023-05-07T12:34:02;20.30;99.90
25046;DHT22;13044;49.304;12.840;2023-05-07T12:36:37;20.30;99.90
25046;DHT22;13044;49.304;12.840;2023-05-07T12:39:06;20.00;99.70
25046;DHT22;13044;49.304;12.840;2023-05-07T12:41:54;20.00;99.40
25046;DHT22;13044;49.304;12.840;2023-05-07T12:44:23;19.70;99.90
25046;DHT22;13044;49.304;12.840;2023-05-07T12:46:51;19.90;99.90
25046;DHT22;13044;49.304;12.840;2023-05-07T12:49:18;19.80;99.90
25046;DHT22;13044;49.304;12.840;2023-05-07T12:51:47;19.90;99.90
25046;DHT22;13044;49.304;12.840;2023-05-07T12:54:30;20.10;99.50
25046;DHT22;13044;49.304;12.840;2023-05-07T12:57:05;20.20;98.70
25046;DHT22;13044;49.304;12.840;2023-05-07T12:59:41;20.30;98.60
25046;DHT22;13044;49.304;12.840;2023-05-07T13:02:09;20.30;98.40
25046;DHT22;13044;49.304;12.840;2023-05-07T13:04:36;20.50;98.60
25046;DHT22;13044;49.304;12.840;2023-05-07T13:07:03;20.70;96.80
25046;DHT22;13044;49.304;12.840;2023-05-07T13:09:31;20.60;95.70
25046;DHT22;13044;49.304;12.840;2023-05-07T13:11:58;20.80;97.70
25046;DHT22;13044;49.304;12.840;2023-05-07T13:14:28;20.80;97.30
25046;DHT22;13044;49.304;12.840;2023-05-07T13:16:54;20.80;96.10
25046;DHT22;13044;49.304;12.840;2023-05-07T13:19:21;20.60;95.90
25046;DHT22;13044;49.304;12.840;2023-05-07T13:21:48;20.60;95.80
25046;DHT22;13044;49.304;12.840;2023-05-07T13:24:16;20.60;95.60
25046;DHT22;13044;49.304;12.840;2023-05-07T13:26:43;20.70;96.30
25046;DHT22;13044;49.304;12.840;2023-05-07T13:29:11;20.80;96.10
25046;DHT22;13044;49.304;12.840;2023-05-07T13:31:38;21.00;95.70
25046;DHT22;13044;49.304;12.840;2023-05-07T13:34:09;20.90;95.40
25046;DHT22;13044;49.304;12.840;2023-05-07T13:36:36;21.00;95.70
25046;DHT22;13044;49.304;12.840;2023-05-07T13:39:06;21.10;94.90
25046;DHT22;13044;49.304;12.840;2023-05-07T13:41:33;21.00;94.40
25046;DHT22;13044;49.304;12.840;2023-05-07T13:44:00;21.00;94.60
25046;DHT22;13044;49.304;12.840;2023-05-07T13:46:27;21.10;93.40
25046;DHT22;13044;49.304;12.840;2023-05-07T13:48:54;21.20;92.90
25046;DHT22;13044;49.304;12.840;2023-05-07T13:51:21;21.20;93.70
25046;DHT22;13044;49.304;12.840;2023-05-07T13:53:48;21.20;92.80
25046;DHT22;13044;49.304;12.840;2023-05-07T13:56:15;21.20;92.70
25046;DHT22;13044;49.304;12.840;2023-05-07T13:58:42;21.10;92.30
25046;DHT22;13044;49.304;12.840;2023-05-07T14:01:25;21.10;92.00
25046;DHT22;13044;49.304;12.840;2023-05-07T14:03:52;20.70;92.40
25046;DHT22;13044;49.304;12.840;2023-05-07T14:06:19;20.50;91.60
25046;DHT22;13044;49.304;12.840;2023-05-07T14:08:46;20.40;92.50
25046;DHT22;13044;49.304;12.840;2023-05-07T14:11:13;20.30;93.10
25046;DHT22;13044;49.304;12.840;2023-05-07T14:13:39;20.30;93.60
25046;DHT22;13044;49.304;12.840;2023-05-07T14:16:06;20.60;94.30
25046;DHT22;13044;49.304;12.840;2023-05-07T14:18:33;20.70;93.10
25046;DHT22;13044;49.304;12.840;2023-05-07T14:21:01;20.80;93.00
25046;DHT22;13044;49.304;12.840;2023-05-07T14:23:28;20.90;92.60
25046;DHT22;13044;49.304;12.840;2023-05-07T14:25:55;21.10;92.20
25046;DHT22;13044;49.304;12.840;2023-05-07T14:28:23;21.10;91.90
25046;DHT22;13044;49.304;12.840;2023-05-07T14:30:50;21.00;92.40
25046;DHT22;13044;49.304;12.840;2023-05-07T14:33:17;21.10;92.00
25046;DHT22;13044;49.304;12.840;2023-05-07T14:35:44;21.00;91.70
25046;DHT22;13044;49.304;12.840;2023-05-07T14:38:15;20.90;92.10
25046;DHT22;13044;49.304;12.840;2023-05-07T14:40:42;20.80;92.30
25046;DHT22;13044;49.304;12.840;2023-05-07T14:43:09;20.80;91.10
25046;DHT22;13044;49.304;12.840;2023-05-07T14:45:36;20.80;90.80
25046;DHT22;13044;49.304;12.840;2023-05-07T14:48:03;20.70;90.60
25046;DHT22;13044;49.304;12.840;2023-05-07T14:50:30;20.80;91.60
25046;DHT22;13044;49.304;12.840;2023-05-07T14:52:57;21.00;90.30
25046;DHT22;13044;49.304;12.840;2023-05-07T14:55:24;21.00;91.00
25046;DHT22;13044;49.304;12.840;2023-05-07T14:57:51;21.10;90.60
25046;DHT22;13044;49.304;12.840;2023-05-07T15:00:18;21.10;89.70
25046;DHT22;13044;49.304;12.840;2023-05-07T15:02:45;20.90;88.40
25046;DHT22;13044;49.304;12.840;2023-05-07T15:05:12;20.80;89.00
25046;DHT22;13044;49.304;12.840;2023-05-07T15:07:40;20.80;90.00
25046;DHT22;13044;49.304;12.840;2023-05-07T15:10:08;20.80;88.30
25046;DHT22;13044;49.304;12.840;2023-05-07T15:12:35;20.80;88.20
25046;DHT22;13044;49.304;12.840;2023-05-07T15:15:02;20.90;89.40
25046;DHT22;13044;49.304;12.840;2023-05-07T15:17:29;21.10;87.90
25046;DHT22;13044;49.304;12.840;2023-05-07T15:19:56;21.20;87.20
25046;DHT22;13044;49.304;12.840;2023-05-07T15:22:22;21.20;86.30
25046;DHT22;13044;49.304;12.840;2023-05-07T15:24:49;21.20;87.60
25046;DHT22;13044;49.304;12.840;2023-05-07T15:27:16;21.30;86.80
25046;DHT22;13044;49.304;12.840;2023-05-07T15:29:43;21.30;86.70
25046;DHT22;13044;49.304;12.840;2023-05-07T15:32:10;21.10;87.60
25046;DHT22;13044;49.304;12.840;2023-05-07T15:34:37;21.00;87.00
25046;DHT22;13044;49.304;12.840;2023-05-07T15:37:04;20.90;86.70